sensor_id;sensor_type;location;lat;lon;timestamp;P1;durP1;ratioP1;P2;durP2;ratioP2
30896;SDS011;64229;52.246;21.054;2023-04-10T00:02:24;24.40;;;14.93;;
30896;SDS011;64229;52.246;21.054;2023-04-10T00:04:50;26.08;;;12.82;;
30896;SDS011;64229;52.246;21.054;2023-04-10T00:07:15;26.73;;;14.70;;
30896;SDS011;64229;52.246;21.054;2023-04-10T00:09:41;23.90;;;13.77;;
30896;SDS011;64229;52.246;21.054;2023-04-10T00:12:06;22.80;;;12.98;;
30896;SDS011;64229;52.246;21.054;2023-04-10T00:14:31;21.70;;;13.00;;
30896;SDS011;64229;52.246;21.054;2023-04-10T00:16:57;23.90;;;13.68;;
30896;SDS011;64229;52.246;21.054;2023-04-10T00:19:22;25.08;;;12.82;;
30896;SDS011;64229;52.246;21.054;2023-04-10T00:21:48;22.50;;;12.70;;
30896;SDS011;64229;52.246;21.054;2023-04-10T00:24:13;21.45;;;12.77;;
30896;SDS011;64229;52.246;21.054;2023-04-10T00:26:39;22.00;;;12.93;;
30896;SDS011;64229;52.246;21.054;2023-04-10T00:29:04;23.60;;;12.95;;
30896;SDS011;64229;52.246;21.054;2023-04-10T00:31:30;25.10;;;12.88;;
30896;SDS011;64229;52.246;21.054;2023-04-10T00:33:56;27.30;;;14.43;;
30896;SDS011;64229;52.246;21.054;2023-04-10T00:36:21;24.98;;;13.35;;
30896;SDS011;64229;52.246;21.054;2023-04-10T00:38:47;26.27;;;13.80;;
30896;SDS011;64229;52.246;21.054;2023-04-10T00:41:13;21.35;;;12.85;;
30896;SDS011;64229;52.246;21.054;2023-04-10T00:43:39;26.73;;;13.70;;
30896;SDS011;64229;52.246;21.054;2023-04-10T00:46:05;25.52;;;13.57;;
30896;SDS011;64229;52.246;21.054;2023-04-10T00:48:31;26.58;;;13.52;;
30896;SDS011;64229;52.246;21.054;2023-04-10T00:50:56;26.05;;;13.18;;
30896;SDS011;64229;52.246;21.054;2023-04-10T00:53:22;21.95;;;12.57;;
30896;SDS011;64229;52.246;21.054;2023-04-10T00:55:48;28.58;;;13.13;;
30896;SDS011;64229;52.246;21.054;2023-04-10T00:58:16;20.27;;;12.30;;
30896;SDS011;64229;52.246;21.054;2023-04-10T01:00:42;25.13;;;12.65;;
30896;SDS011;64229;52.246;21.054;2023-04-10T01:03:08;21.75;;;12.25;;
30896;SDS011;64229;52.246;21.054;2023-04-10T01:05:38;25.58;;;12.75;;
30896;SDS011;64229;52.246;21.054;2023-04-10T01:13:23;21.83;;;12.60;;
30896;SDS011;64229;52.246;21.054;2023-04-10T01:16:04;27.52;;;13.52;;
30896;SDS011;64229;52.246;21.054;2023-04-10T01:18:47;21.98;;;12.02;;
30896;SDS011;64229;52.246;21.054;2023-04-10T01:21:18;23.42;;;12.68;;
30896;SDS011;64229;52.246;21.054;2023-04-10T01:26:21;20.63;;;12.23;;
30896;SDS011;64229;52.246;21.054;2023-04-10T01:29:01;22.75;;;12.45;;
30896;SDS011;64229;52.246;21.054;2023-04-10T01:31:43;21.88;;;12.52;;
30896;SDS011;64229;52.246;21.054;2023-04-10T01:36:45;23.67;;;13.07;;
30896;SDS011;64229;52.246;21.054;2023-04-10T01:39:16;20.67;;;12.70;;
30896;SDS011;64229;52.246;21.054;2023-04-10T01:41:44;20.55;;;12.40;;
30896;SDS011;64229;52.246;21.054;2023-04-10T01:44:12;23.20;;;12.77;;
30896;SDS011;64229;52.246;21.054;2023-04-10T01:46:39;25.13;;;13.38;;
30896;SDS011;64229;52.246;21.054;2023-04-10T01:49:07;21.10;;;11.90;;
30896;SDS011;64229;52.246;21.054;2023-04-10T01:51:33;24.98;;;13.48;;
30896;SDS011;64229;52.246;21.054;2023-04-10T01:53:59;24.88;;;12.95;;
30896;SDS011;64229;52.246;21.054;2023-04-10T01:56:26;24.13;;;14.00;;
30896;SDS011;64229;52.246;21.054;2023-04-10T01:58:52;21.45;;;13.10;;
30896;SDS011;64229;52.246;21.054;2023-04-10T02:01:19;27.60;;;14.05;;
30896;SDS011;64229;52.246;21.054;2023-04-10T02:03:45;23.23;;;13.20;;
30896;SDS011;64229;52.246;21.054;2023-04-10T02:06:17;22.30;;;13.25;;
30896;SDS011;64229;52.246;21.054;2023-04-10T02:08:53;27.23;;;13.88;;
30896;SDS011;64229;52.246;21.054;2023-04-10T02:14:20;22.25;;;13.65;;
30896;SDS011;64229;52.246;21.054;2023-04-10T02:16:48;24.67;;;14.52;;
30896;SDS011;64229;52.246;21.054;2023-04-10T02:19:18;24.83;;;12.68;;
30896;SDS011;64229;52.246;21.054;2023-04-10T02:21:45;21.17;;;13.35;;
30896;SDS011;64229;52.246;21.054;2023-04-10T02:24:11;26.63;;;13.68;;
30896;SDS011;64229;52.246;21.054;2023-04-10T02:26:43;22.90;;;13.02;;
30896;SDS011;64229;52.246;21.054;2023-04-10T02:29:12;21.13;;;12.88;;
30896;SDS011;64229;52.246;21.054;2023-04-10T02:31:39;25.13;;;13.45;;
30896;SDS011;64229;52.246;21.054;2023-04-10T02:34:05;25.23;;;13.80;;
30896;SDS011;64229;52.246;21.054;2023-04-10T02:36:31;25.63;;;13.80;;
30896;SDS011;64229;52.246;21.054;2023-04-10T02:38:56;25.98;;;14.57;;
30896;SDS011;64229;52.246;21.054;2023-04-10T02:41:22;25.65;;;13.20;;
30896;SDS011;64229;52.246;21.054;2023-04-10T02:43:48;24.63;;;14.57;;
30896;SDS011;64229;52.246;21.054;2023-04-10T02:46:13;22.15;;;13.27;;
30896;SDS011;64229;52.246;21.054;2023-04-10T02:48:39;28.55;;;14.05;;
30896;SDS011;64229;52.246;21.054;2023-04-10T02:51:04;27.20;;;14.68;;
30896;SDS011;64229;52.246;21.054;2023-04-10T02:53:31;26.42;;;13.38;;
30896;SDS011;64229;52.246;21.054;2023-04-10T02:55:57;28.35;;;14.65;;
30896;SDS011;64229;52.246;21.054;2023-04-10T02:58:22;24.25;;;13.77;;
30896;SDS011;64229;52.246;21.054;2023-04-10T03:00:48;28.02;;;13.82;;
30896;SDS011;64229;52.246;21.054;2023-04-10T03:03:14;29.73;;;13.50;;
30896;SDS011;64229;52.246;21.054;2023-04-10T03:05:40;29.45;;;14.57;;
30896;SDS011;64229;52.246;21.054;2023-04-10T03:08:06;24.88;;;13.68;;
30896;SDS011;64229;52.246;21.054;2023-04-10T03:10:31;25.80;;;14.77;;
30896;SDS011;64229;52.246;21.054;2023-04-10T03:12:57;27.50;;;13.65;;
30896;SDS011;64229;52.246;21.054;2023-04-10T03:15:22;26.67;;;14.00;;
30896;SDS011;64229;52.246;21.054;2023-04-10T03:17:47;24.83;;;13.43;;
30896;SDS011;64229;52.246;21.054;2023-04-10T03:20:12;27.25;;;14.77;;
30896;SDS011;64229;52.246;21.054;2023-04-10T03:22:39;25.80;;;14.35;;
30896;SDS011;64229;52.246;21.054;2023-04-10T03:25:05;25.55;;;13.20;;
30896;SDS011;64229;52.246;21.054;2023-04-10T03:27:30;26.80;;;13.40;;
30896;SDS011;64229;52.246;21.054;2023-04-10T03:29:58;25.05;;;13.48;;
30896;SDS011;64229;52.246;21.054;2023-04-10T03:32:24;24.95;;;13.90;;
30896;SDS011;64229;52.246;21.054;2023-04-10T03:34:52;22.38;;;13.18;;
30896;SDS011;64229;52.246;21.054;2023-04-10T03:37:17;22.50;;;13.60;;
30896;SDS011;64229;52.246;21.054;2023-04-10T03:39:43;24.20;;;14.10;;
30896;SDS011;64229;52.246;21.054;2023-04-10T03:42:09;24.25;;;13.80;;
30896;SDS011;64229;52.246;21.054;2023-04-10T03:44:35;26.83;;;14.23;;
30896;SDS011;64229;52.246;21.054;2023-04-10T03:47:00;29.17;;;14.63;;
30896;SDS011;64229;52.246;21.054;2023-04-10T03:49:26;25.00;;;14.35;;
30896;SDS011;64229;52.246;21.054;2023-04-10T03:51:51;24.27;;;14.00;;
30896;SDS011;64229;52.246;21.054;2023-04-10T03:54:17;27.05;;;15.02;;
30896;SDS011;64229;52.246;21.054;2023-04-10T03:56:42;24.70;;;13.77;;
30896;SDS011;64229;52.246;21.054;2023-04-10T03:59:07;29.05;;;14.70;;
30896;SDS011;64229;52.246;21.054;2023-04-10T04:01:33;27.55;;;15.85;;
30896;SDS011;64229;52.246;21.054;2023-04-10T04:03:58;26.25;;;13.80;;
30896;SDS011;64229;52.246;21.054;2023-04-10T04:06:23;24.95;;;14.52;;
30896;SDS011;64229;52.246;21.054;2023-04-10T04:08:49;25.45;;;14.57;;
30896;SDS011;64229;52.246;21.054;2023-04-10T04:11:14;25.42;;;13.93;;
30896;SDS011;64229;52.246;21.054;2023-04-10T04:13:40;26.30;;;13.57;;
30896;SDS011;64229;52.246;21.054;2023-04-10T04:16:05;26.23;;;13.95;;
30896;SDS011;64229;52.246;21.054;2023-04-10T04:18:31;25.73;;;13.88;;
30896;SDS011;64229;52.246;21.054;2023-04-10T04:20:57;25.73;;;13.65;;
30896;SDS011;64229;52.246;21.054;2023-04-10T04:23:22;22.08;;;13.60;;
30896;SDS011;64229;52.246;21.054;2023-04-10T04:25:47;27.77;;;14.95;;
30896;SDS011;64229;52.246;21.054;2023-04-10T04:28:16;22.52;;;13.43;;
30896;SDS011;64229;52.246;21.054;2023-04-10T04:30:42;23.58;;;14.02;;
30896;SDS011;64229;52.246;21.054;2023-04-10T04:33:07;27.40;;;14.90;;
30896;SDS011;64229;52.246;21.054;2023-04-10T04:35:32;27.08;;;14.75;;
30896;SDS011;64229;52.246;21.054;2023-04-10T04:37:58;23.30;;;13.70;;
30896;SDS011;64229;52.246;21.054;2023-04-10T04:40:23;25.50;;;14.35;;
30896;SDS011;64229;52.246;21.054;2023-04-10T04:42:48;24.70;;;14.15;;
30896;SDS011;64229;52.246;21.054;2023-04-10T04:45:13;21.95;;;13.02;;
30896;SDS011;64229;52.246;21.054;2023-04-10T04:47:39;26.88;;;13.32;;
30896;SDS011;64229;52.246;21.054;2023-04-10T04:50:04;24.50;;;13.20;;
30896;SDS011;64229;52.246;21.054;2023-04-10T04:52:30;24.25;;;12.85;;
30896;SDS011;64229;52.246;21.054;2023-04-10T04:54:56;23.58;;;13.15;;
30896;SDS011;64229;52.246;21.054;2023-04-10T04:57:21;24.27;;;13.63;;
30896;SDS011;64229;52.246;21.054;2023-04-10T04:59:46;26.65;;;13.80;;
30896;SDS011;64229;52.246;21.054;2023-04-10T05:02:12;23.60;;;12.43;;
30896;SDS011;64229;52.246;21.054;2023-04-10T05:04:37;24.08;;;13.18;;
30896;SDS011;64229;52.246;21.054;2023-04-10T05:07:02;21.20;;;12.65;;
30896;SDS011;64229;52.246;21.054;2023-04-10T05:09:28;23.00;;;12.80;;
30896;SDS011;64229;52.246;21.054;2023-04-10T05:11:53;23.23;;;12.88;;
30896;SDS011;64229;52.246;21.054;2023-04-10T05:14:19;21.02;;;11.80;;
30896;SDS011;64229;52.246;21.054;2023-04-10T05:16:46;22.88;;;12.55;;
30896;SDS011;64229;52.246;21.054;2023-04-10T05:19:11;22.05;;;12.27;;
30896;SDS011;64229;52.246;21.054;2023-04-10T05:21:36;24.10;;;12.45;;
30896;SDS011;64229;52.246;21.054;2023-04-10T05:24:02;22.38;;;11.77;;
30896;SDS011;64229;52.246;21.054;2023-04-10T05:26:27;22.92;;;12.95;;
30896;SDS011;64229;52.246;21.054;2023-04-10T05:28:52;23.25;;;13.27;;
30896;SDS011;64229;52.246;21.054;2023-04-10T05:31:18;26.58;;;13.35;;
30896;SDS011;64229;52.246;21.054;2023-04-10T05:33:43;25.67;;;12.38;;
30896;SDS011;64229;52.246;21.054;2023-04-10T05:36:09;24.92;;;13.43;;
30896;SDS011;64229;52.246;21.054;2023-04-10T05:38:35;20.77;;;12.63;;
30896;SDS011;64229;52.246;21.054;2023-04-10T05:41:00;22.98;;;12.80;;
30896;SDS011;64229;52.246;21.054;2023-04-10T05:43:25;23.05;;;12.25;;
30896;SDS011;64229;52.246;21.054;2023-04-10T05:45:51;25.67;;;13.07;;
30896;SDS011;64229;52.246;21.054;2023-04-10T05:48:16;26.27;;;14.30;;
30896;SDS011;64229;52.246;21.054;2023-04-10T05:50:42;25.02;;;14.20;;
30896;SDS011;64229;52.246;21.054;2023-04-10T05:53:11;25.17;;;14.55;;
30896;SDS011;64229;52.246;21.054;2023-04-10T05:55:37;27.35;;;14.90;;
30896;SDS011;64229;52.246;21.054;2023-04-10T05:58:03;27.65;;;16.20;;
30896;SDS011;64229;52.246;21.054;2023-04-10T06:00:28;26.60;;;16.20;;
30896;SDS011;64229;52.246;21.054;2023-04-10T06:02:53;23.38;;;14.13;;
30896;SDS011;64229;52.246;21.054;2023-04-10T06:05:19;23.35;;;13.80;;
30896;SDS011;64229;52.246;21.054;2023-04-10T06:07:45;18.30;;;11.65;;
30896;SDS011;64229;52.246;21.054;2023-04-10T06:10:10;19.77;;;12.07;;
30896;SDS011;64229;52.246;21.054;2023-04-10T06:12:36;19.45;;;11.05;;
30896;SDS011;64229;52.246;21.054;2023-04-10T06:15:01;20.23;;;11.43;;
30896;SDS011;64229;52.246;21.054;2023-04-10T06:17:27;18.00;;;11.00;;
30896;SDS011;64229;52.246;21.054;2023-04-10T06:19:52;19.60;;;10.60;;
30896;SDS011;64229;52.246;21.054;2023-04-10T06:22:17;24.10;;;13.52;;
30896;SDS011;64229;52.246;21.054;2023-04-10T06:24:43;19.23;;;11.68;;
30896;SDS011;64229;52.246;21.054;2023-04-10T06:27:08;17.50;;;10.52;;
30896;SDS011;64229;52.246;21.054;2023-04-10T06:29:34;20.13;;;12.40;;
30896;SDS011;64229;52.246;21.054;2023-04-10T06:31:59;18.63;;;11.45;;
30896;SDS011;64229;52.246;21.054;2023-04-10T06:34:24;21.25;;;11.65;;
30896;SDS011;64229;52.246;21.054;2023-04-10T06:36:50;26.77;;;15.75;;
30896;SDS011;64229;52.246;21.054;2023-04-10T06:39:16;32.25;;;19.63;;
30896;SDS011;64229;52.246;21.054;2023-04-10T06:41:41;29.08;;;17.38;;
30896;SDS011;64229;52.246;21.054;2023-04-10T06:44:07;26.20;;;15.98;;
30896;SDS011;64229;52.246;21.054;2023-04-10T06:46:32;20.70;;;13.25;;
30896;SDS011;64229;52.246;21.054;2023-04-10T06:48:57;22.45;;;12.65;;
30896;SDS011;64229;52.246;21.054;2023-04-10T06:51:23;18.67;;;10.68;;
30896;SDS011;64229;52.246;21.054;2023-04-10T06:53:48;17.00;;;10.43;;
30896;SDS011;64229;52.246;21.054;2023-04-10T06:56:14;20.13;;;11.68;;
30896;SDS011;64229;52.246;21.054;2023-04-10T06:58:39;18.45;;;10.93;;
30896;SDS011;64229;52.246;21.054;2023-04-10T07:01:05;18.27;;;10.95;;
30896;SDS011;64229;52.246;21.054;2023-04-10T07:03:31;17.88;;;11.85;;
30896;SDS011;64229;52.246;21.054;2023-04-10T07:05:56;17.65;;;10.65;;
30896;SDS011;64229;52.246;21.054;2023-04-10T07:08:22;21.65;;;10.85;;
30896;SDS011;64229;52.246;21.054;2023-04-10T07:15:58;19.02;;;10.40;;
30896;SDS011;64229;52.246;21.054;2023-04-10T07:18:23;17.30;;;10.68;;
30896;SDS011;64229;52.246;21.054;2023-04-10T07:20:49;17.33;;;10.00;;
30896;SDS011;64229;52.246;21.054;2023-04-10T07:23:15;17.20;;;10.38;;
30896;SDS011;64229;52.246;21.054;2023-04-10T07:25:41;16.67;;;10.38;;
30896;SDS011;64229;52.246;21.054;2023-04-10T07:28:06;19.73;;;11.27;;
30896;SDS011;64229;52.246;21.054;2023-04-10T07:30:32;17.98;;;11.32;;
30896;SDS011;64229;52.246;21.054;2023-04-10T07:32:57;18.20;;;10.25;;
30896;SDS011;64229;52.246;21.054;2023-04-10T07:35:22;18.35;;;11.20;;
30896;SDS011;64229;52.246;21.054;2023-04-10T07:37:47;18.70;;;11.52;;
30896;SDS011;64229;52.246;21.054;2023-04-10T07:40:15;18.65;;;11.77;;
30896;SDS011;64229;52.246;21.054;2023-04-10T07:42:41;19.70;;;10.65;;
30896;SDS011;64229;52.246;21.054;2023-04-10T07:45:06;17.70;;;11.10;;
30896;SDS011;64229;52.246;21.054;2023-04-10T07:47:32;15.85;;;10.68;;
30896;SDS011;64229;52.246;21.054;2023-04-10T07:49:57;14.98;;;9.20;;
30896;SDS011;64229;52.246;21.054;2023-04-10T07:52:23;16.52;;;9.10;;
30896;SDS011;64229;52.246;21.054;2023-04-10T07:54:48;15.20;;;8.93;;
30896;SDS011;64229;52.246;21.054;2023-04-10T07:57:14;12.95;;;8.00;;
30896;SDS011;64229;52.246;21.054;2023-04-10T07:59:40;10.45;;;7.45;;
30896;SDS011;64229;52.246;21.054;2023-04-10T08:02:05;10.15;;;6.53;;
30896;SDS011;64229;52.246;21.054;2023-04-10T08:04:30;11.02;;;6.63;;
30896;SDS011;64229;52.246;21.054;2023-04-10T08:06:56;8.85;;;5.88;;
30896;SDS011;64229;52.246;21.054;2023-04-10T08:09:21;10.02;;;6.22;;
30896;SDS011;64229;52.246;21.054;2023-04-10T08:11:46;12.02;;;6.82;;
30896;SDS011;64229;52.246;21.054;2023-04-10T08:14:12;13.55;;;6.88;;
30896;SDS011;64229;52.246;21.054;2023-04-10T08:16:37;11.60;;;6.63;;
30896;SDS011;64229;52.246;21.054;2023-04-10T08:19:03;11.77;;;6.35;;
30896;SDS011;64229;52.246;21.054;2023-04-10T08:21:29;10.75;;;6.53;;
30896;SDS011;64229;52.246;21.054;2023-04-10T08:23:56;12.02;;;6.65;;
30896;SDS011;64229;52.246;21.054;2023-04-10T08:26:24;11.95;;;6.32;;
30896;SDS011;64229;52.246;21.054;2023-04-10T08:28:51;7.53;;;5.10;;
30896;SDS011;64229;52.246;21.054;2023-04-10T08:31:18;10.02;;;5.07;;
30896;SDS011;64229;52.246;21.054;2023-04-10T08:33:47;9.02;;;4.50;;
30896;SDS011;64229;52.246;21.054;2023-04-10T08:36:13;7.13;;;4.22;;
30896;SDS011;64229;52.246;21.054;2023-04-10T08:38:42;5.50;;;3.63;;
30896;SDS011;64229;52.246;21.054;2023-04-10T08:41:15;5.78;;;3.95;;
30896;SDS011;64229;52.246;21.054;2023-04-10T08:43:41;5.85;;;3.45;;
30896;SDS011;64229;52.246;21.054;2023-04-10T08:46:09;8.57;;;3.65;;
30896;SDS011;64229;52.246;21.054;2023-04-10T08:49:21;5.60;;;3.25;;
30896;SDS011;64229;52.246;21.054;2023-04-10T08:52:03;6.00;;;3.40;;
30896;SDS011;64229;52.246;21.054;2023-04-10T08:54:31;5.47;;;3.30;;
30896;SDS011;64229;52.246;21.054;2023-04-10T08:56:58;6.68;;;3.22;;
30896;SDS011;64229;52.246;21.054;2023-04-10T08:59:26;5.75;;;3.38;;
30896;SDS011;64229;52.246;21.054;2023-04-10T09:01:53;4.57;;;3.05;;
30896;SDS011;64229;52.246;21.054;2023-04-10T09:04:20;6.43;;;3.53;;
30896;SDS011;64229;52.246;21.054;2023-04-10T09:06:45;6.13;;;3.05;;
30896;SDS011;64229;52.246;21.054;2023-04-10T09:09:11;5.32;;;3.22;;
30896;SDS011;64229;52.246;21.054;2023-04-10T09:14:21;7.82;;;3.20;;
30896;SDS011;64229;52.246;21.054;2023-04-10T09:16:49;5.10;;;3.40;;
30896;SDS011;64229;52.246;21.054;2023-04-10T09:19:31;5.25;;;2.90;;
30896;SDS011;64229;52.246;21.054;2023-04-10T09:21:57;5.05;;;3.00;;
30896;SDS011;64229;52.246;21.054;2023-04-10T09:24:23;4.18;;;2.80;;
30896;SDS011;64229;52.246;21.054;2023-04-10T09:26:49;4.20;;;2.90;;
30896;SDS011;64229;52.246;21.054;2023-04-10T09:29:14;6.53;;;3.00;;
30896;SDS011;64229;52.246;21.054;2023-04-10T09:31:43;5.40;;;3.05;;
30896;SDS011;64229;52.246;21.054;2023-04-10T09:34:13;4.00;;;2.88;;
30896;SDS011;64229;52.246;21.054;2023-04-10T09:39:36;6.82;;;2.72;;
30896;SDS011;64229;52.246;21.054;2023-04-10T09:42:07;4.45;;;2.90;;
30896;SDS011;64229;52.246;21.054;2023-04-10T09:44:33;5.10;;;2.92;;
30896;SDS011;64229;52.246;21.054;2023-04-10T09:47:19;4.30;;;2.80;;
30896;SDS011;64229;52.246;21.054;2023-04-10T09:49:46;4.82;;;2.50;;
30896;SDS011;64229;52.246;21.054;2023-04-10T09:54:53;4.07;;;2.70;;
30896;SDS011;64229;52.246;21.054;2023-04-10T09:57:20;6.88;;;2.78;;
30896;SDS011;64229;52.246;21.054;2023-04-10T09:59:51;3.15;;;2.30;;
30896;SDS011;64229;52.246;21.054;2023-04-10T10:02:19;4.30;;;2.28;;
30896;SDS011;64229;52.246;21.054;2023-04-10T10:04:46;5.20;;;2.47;;
30896;SDS011;64229;52.246;21.054;2023-04-10T10:07:15;5.30;;;2.42;;
30896;SDS011;64229;52.246;21.054;2023-04-10T10:09:42;6.38;;;2.25;;
30896;SDS011;64229;52.246;21.054;2023-04-10T10:12:09;6.10;;;2.58;;
30896;SDS011;64229;52.246;21.054;2023-04-10T10:14:38;3.78;;;2.33;;
30896;SDS011;64229;52.246;21.054;2023-04-10T10:17:17;6.47;;;2.55;;
30896;SDS011;64229;52.246;21.054;2023-04-10T10:19:48;4.00;;;2.35;;
30896;SDS011;64229;52.246;21.054;2023-04-10T10:22:20;3.33;;;2.47;;
30896;SDS011;64229;52.246;21.054;2023-04-10T10:24:49;10.95;;;4.32;;
30896;SDS011;64229;52.246;21.054;2023-04-10T10:27:20;4.47;;;2.67;;
30896;SDS011;64229;52.246;21.054;2023-04-10T10:29:47;6.13;;;2.60;;
30896;SDS011;64229;52.246;21.054;2023-04-10T10:32:16;4.43;;;2.40;;
30896;SDS011;64229;52.246;21.054;2023-04-10T10:34:42;7.10;;;2.47;;
30896;SDS011;64229;52.246;21.054;2023-04-10T10:37:10;6.10;;;2.38;;
30896;SDS011;64229;52.246;21.054;2023-04-10T10:48:18;3.90;;;2.25;;
30896;SDS011;64229;52.246;21.054;2023-04-10T10:53:37;6.90;;;2.80;;
30896;SDS011;64229;52.246;21.054;2023-04-10T10:58:46;2.88;;;2.15;;
30896;SDS011;64229;52.246;21.054;2023-04-10T11:01:14;5.28;;;2.53;;
30896;SDS011;64229;52.246;21.054;2023-04-10T11:03:41;8.15;;;2.70;;
30896;SDS011;64229;52.246;21.054;2023-04-10T11:06:09;4.03;;;1.98;;
30896;SDS011;64229;52.246;21.054;2023-04-10T11:16:20;5.95;;;2.80;;
30896;SDS011;64229;52.246;21.054;2023-04-10T11:21:19;5.93;;;2.53;;
30896;SDS011;64229;52.246;21.054;2023-04-10T11:28:57;5.03;;;2.63;;
30896;SDS011;64229;52.246;21.054;2023-04-10T11:31:23;4.95;;;2.70;;
30896;SDS011;64229;52.246;21.054;2023-04-10T11:36:24;5.77;;;3.57;;
30896;SDS011;64229;52.246;21.054;2023-04-10T11:41:26;6.28;;;2.70;;
30896;SDS011;64229;52.246;21.054;2023-04-10T11:43:52;5.90;;;2.50;;
30896;SDS011;64229;52.246;21.054;2023-04-10T11:46:18;6.32;;;2.40;;
30896;SDS011;64229;52.246;21.054;2023-04-10T11:48:44;4.65;;;2.45;;
30896;SDS011;64229;52.246;21.054;2023-04-10T11:51:10;4.88;;;2.60;;
30896;SDS011;64229;52.246;21.054;2023-04-10T11:53:37;7.07;;;2.50;;
30896;SDS011;64229;52.246;21.054;2023-04-10T11:56:03;5.53;;;2.20;;
30896;SDS011;64229;52.246;21.054;2023-04-10T11:58:31;4.97;;;2.50;;
30896;SDS011;64229;52.246;21.054;2023-04-10T12:01:03;3.78;;;2.10;;
30896;SDS011;64229;52.246;21.054;2023-04-10T12:03:38;5.13;;;2.72;;
30896;SDS011;64229;52.246;21.054;2023-04-10T12:06:06;4.35;;;2.30;;
30896;SDS011;64229;52.246;21.054;2023-04-10T12:08:33;4.20;;;2.40;;
30896;SDS011;64229;52.246;21.054;2023-04-10T12:11:00;7.03;;;2.20;;
30896;SDS011;64229;52.246;21.054;2023-04-10T12:13:26;4.30;;;2.58;;
30896;SDS011;64229;52.246;21.054;2023-04-10T12:15:53;6.78;;;2.30;;
30896;SDS011;64229;52.246;21.054;2023-04-10T12:18:21;3.30;;;2.25;;
30896;SDS011;64229;52.246;21.054;2023-04-10T12:20:46;3.75;;;2.33;;
30896;SDS011;64229;52.246;21.054;2023-04-10T12:23:13;6.10;;;2.53;;
30896;SDS011;64229;52.246;21.054;2023-04-10T12:25:38;4.03;;;2.20;;
30896;SDS011;64229;52.246;21.054;2023-04-10T12:28:05;3.60;;;2.20;;
30896;SDS011;64229;52.246;21.054;2023-04-10T12:30:31;4.28;;;2.00;;
30896;SDS011;64229;52.246;21.054;2023-04-10T12:32:56;5.13;;;2.30;;
30896;SDS011;64229;52.246;21.054;2023-04-10T12:35:37;4.63;;;2.33;;
30896;SDS011;64229;52.246;21.054;2023-04-10T12:38:03;5.75;;;2.70;;
30896;SDS011;64229;52.246;21.054;2023-04-10T12:40:28;6.45;;;2.13;;
30896;SDS011;64229;52.246;21.054;2023-04-10T12:42:54;4.07;;;2.13;;
30896;SDS011;64229;52.246;21.054;2023-04-10T12:45:20;4.82;;;2.22;;
30896;SDS011;64229;52.246;21.054;2023-04-10T12:47:46;4.72;;;2.40;;
30896;SDS011;64229;52.246;21.054;2023-04-10T12:50:18;6.03;;;2.33;;
30896;SDS011;64229;52.246;21.054;2023-04-10T12:52:45;4.30;;;2.38;;
30896;SDS011;64229;52.246;21.054;2023-04-10T12:55:25;6.05;;;2.28;;
30896;SDS011;64229;52.246;21.054;2023-04-10T12:57:52;5.78;;;2.78;;
30896;SDS011;64229;52.246;21.054;2023-04-10T13:00:19;4.65;;;1.95;;
30896;SDS011;64229;52.246;21.054;2023-04-10T13:02:45;2.63;;;1.88;;
30896;SDS011;64229;52.246;21.054;2023-04-10T13:05:11;5.05;;;1.92;;
30896;SDS011;64229;52.246;21.054;2023-04-10T13:07:37;7.38;;;1.90;;
30896;SDS011;64229;52.246;21.054;2023-04-10T13:10:03;3.55;;;1.95;;
30896;SDS011;64229;52.246;21.054;2023-04-10T13:12:30;4.38;;;1.90;;
30896;SDS011;64229;52.246;21.054;2023-04-10T13:14:56;3.72;;;2.10;;
30896;SDS011;64229;52.246;21.054;2023-04-10T13:17:24;5.97;;;2.83;;
30896;SDS011;64229;52.246;21.054;2023-04-10T13:19:50;4.05;;;2.60;;
30896;SDS011;64229;52.246;21.054;2023-04-10T13:22:15;5.38;;;2.22;;
30896;SDS011;64229;52.246;21.054;2023-04-10T13:24:41;4.88;;;2.25;;
30896;SDS011;64229;52.246;21.054;2023-04-10T13:27:07;4.43;;;2.40;;
30896;SDS011;64229;52.246;21.054;2023-04-10T13:29:33;4.50;;;2.40;;
30896;SDS011;64229;52.246;21.054;2023-04-10T13:31:59;3.95;;;2.05;;
30896;SDS011;64229;52.246;21.054;2023-04-10T13:34:25;2.70;;;2.33;;
30896;SDS011;64229;52.246;21.054;2023-04-10T13:36:50;9.68;;;3.15;;
30896;SDS011;64229;52.246;21.054;2023-04-10T13:39:15;6.18;;;2.90;;
30896;SDS011;64229;52.246;21.054;2023-04-10T13:41:42;5.00;;;2.55;;
30896;SDS011;64229;52.246;21.054;2023-04-10T13:44:07;4.70;;;2.35;;
30896;SDS011;64229;52.246;21.054;2023-04-10T13:46:33;5.43;;;2.70;;
30896;SDS011;64229;52.246;21.054;2023-04-10T13:48:58;3.83;;;2.50;;
30896;SDS011;64229;52.246;21.054;2023-04-10T13:51:23;6.25;;;2.50;;
30896;SDS011;64229;52.246;21.054;2023-04-10T13:53:49;4.82;;;2.70;;
30896;SDS011;64229;52.246;21.054;2023-04-10T13:56:14;5.05;;;2.53;;
30896;SDS011;64229;52.246;21.054;2023-04-10T13:58:40;4.85;;;2.63;;
30896;SDS011;64229;52.246;21.054;2023-04-10T14:01:05;5.10;;;2.90;;
30896;SDS011;64229;52.246;21.054;2023-04-10T14:03:31;3.67;;;2.63;;
30896;SDS011;64229;52.246;21.054;2023-04-10T14:05:56;5.07;;;2.67;;
30896;SDS011;64229;52.246;21.054;2023-04-10T14:08:21;4.30;;;2.60;;
30896;SDS011;64229;52.246;21.054;2023-04-10T14:10:47;4.45;;;2.75;;
30896;SDS011;64229;52.246;21.054;2023-04-10T14:13:15;5.25;;;2.80;;
30896;SDS011;64229;52.246;21.054;2023-04-10T14:15:41;4.78;;;2.60;;
30896;SDS011;64229;52.246;21.054;2023-04-10T14:18:06;6.10;;;2.92;;
30896;SDS011;64229;52.246;21.054;2023-04-10T14:20:31;5.97;;;2.97;;
30896;SDS011;64229;52.246;21.054;2023-04-10T14:22:57;5.05;;;3.15;;
30896;SDS011;64229;52.246;21.054;2023-04-10T14:25:23;5.32;;;2.60;;
30896;SDS011;64229;52.246;21.054;2023-04-10T14:27:48;6.32;;;3.13;;
30896;SDS011;64229;52.246;21.054;2023-04-10T14:30:13;4.30;;;2.60;;
30896;SDS011;64229;52.246;21.054;2023-04-10T14:32:39;5.80;;;3.08;;
30896;SDS011;64229;52.246;21.054;2023-04-10T14:35:05;6.43;;;3.08;;
30896;SDS011;64229;52.246;21.054;2023-04-10T14:37:31;4.07;;;2.97;;
30896;SDS011;64229;52.246;21.054;2023-04-10T14:39:56;5.47;;;2.95;;
30896;SDS011;64229;52.246;21.054;2023-04-10T14:42:21;4.53;;;2.90;;
30896;SDS011;64229;52.246;21.054;2023-04-10T14:44:50;6.10;;;3.22;;
30896;SDS011;64229;52.246;21.054;2023-04-10T14:47:16;6.10;;;3.22;;
30896;SDS011;64229;52.246;21.054;2023-04-10T14:49:41;10.10;;;3.50;;
30896;SDS011;64229;52.246;21.054;2023-04-10T14:52:07;4.70;;;3.22;;
30896;SDS011;64229;52.246;21.054;2023-04-10T14:54:36;6.70;;;3.50;;
30896;SDS011;64229;52.246;21.054;2023-04-10T14:57:01;6.10;;;3.67;;
30896;SDS011;64229;52.246;21.054;2023-04-10T14:59:28;5.50;;;3.40;;
30896;SDS011;64229;52.246;21.054;2023-04-10T15:01:53;6.28;;;3.60;;
30896;SDS011;64229;52.246;21.054;2023-04-10T15:04:18;5.22;;;2.95;;
30896;SDS011;64229;52.246;21.054;2023-04-10T15:06:44;10.68;;;3.38;;
30896;SDS011;64229;52.246;21.054;2023-04-10T15:09:09;7.00;;;3.03;;
30896;SDS011;64229;52.246;21.054;2023-04-10T15:11:35;6.70;;;3.67;;
30896;SDS011;64229;52.246;21.054;2023-04-10T15:14:00;8.57;;;4.20;;
30896;SDS011;64229;52.246;21.054;2023-04-10T15:16:26;9.02;;;3.63;;
30896;SDS011;64229;52.246;21.054;2023-04-10T15:18:52;5.15;;;3.40;;
30896;SDS011;64229;52.246;21.054;2023-04-10T15:21:18;10.20;;;4.43;;